sensor_id;sensor_type;location;lat;lon;timestamp;P1;durP1;ratioP1;P2;durP2;ratioP2
28166;SDS011;15455;53.376;-6.262;2024-03-08T00:01:24;69.13;;;25.60;;
28166;SDS011;15455;53.376;-6.262;2024-03-08T00:04:09;61.03;;;23.85;;
28166;SDS011;15455;53.376;-6.262;2024-03-08T00:06:55;60.65;;;23.92;;
28166;SDS011;15455;53.376;-6.262;2024-03-08T00:09:41;62.20;;;24.25;;
28166;SDS011;15455;53.376;-6.262;2024-03-08T00:12:26;63.42;;;23.27;;
28166;SDS011;15455;53.376;-6.262;2024-03-08T00:15:13;52.92;;;22.35;;
28166;SDS011;15455;53.376;-6.262;2024-03-08T00:18:02;51.10;;;21.60;;
28166;SDS011;15455;53.376;-6.262;2024-03-08T00:20:48;53.10;;;21.65;;
28166;SDS011;15455;53.376;-6.262;2024-03-08T00:23:33;54.00;;;21.23;;
28166;SDS011;15455;53.376;-6.262;2024-03-08T00:26:19;50.90;;;20.50;;
28166;SDS011;15455;53.376;-6.262;2024-03-08T00:29:05;53.13;;;21.10;;
28166;SDS011;15455;53.376;-6.262;2024-03-08T00:31:53;50.88;;;20.40;;
28166;SDS011;15455;53.376;-6.262;2024-03-08T00:34:38;39.42;;;18.17;;
28166;SDS011;15455;53.376;-6.262;2024-03-08T00:37:24;56.63;;;21.27;;
28166;SDS011;15455;53.376;-6.262;2024-03-08T00:40:10;49.78;;;18.70;;
28166;SDS011;15455;53.376;-6.262;2024-03-08T00:42:56;48.58;;;20.25;;
28166;SDS011;15455;53.376;-6.262;2024-03-08T00:45:42;46.95;;;20.52;;
28166;SDS011;15455;53.376;-6.262;2024-03-08T00:48:28;49.20;;;21.02;;
28166;SDS011;15455;53.376;-6.262;2024-03-08T00:51:13;45.05;;;19.23;;
28166;SDS011;15455;53.376;-6.262;2024-03-08T00:54:00;54.90;;;19.13;;
28166;SDS011;15455;53.376;-6.262;2024-03-08T00:56:46;47.67;;;19.42;;
28166;SDS011;15455;53.376;-6.262;2024-03-08T00:59:31;45.97;;;20.30;;
28166;SDS011;15455;53.376;-6.262;2024-03-08T01:02:20;49.17;;;19.27;;
28166;SDS011;15455;53.376;-6.262;2024-03-08T01:05:08;46.60;;;19.27;;
28166;SDS011;15455;53.376;-6.262;2024-03-08T01:07:53;44.38;;;18.90;;
28166;SDS011;15455;53.376;-6.262;2024-03-08T01:10:39;45.30;;;19.35;;
28166;SDS011;15455;53.376;-6.262;2024-03-08T01:13:25;52.53;;;18.95;;
28166;SDS011;15455;53.376;-6.262;2024-03-08T01:16:11;41.90;;;18.17;;
28166;SDS011;15455;53.376;-6.262;2024-03-08T01:19:00;48.80;;;19.00;;
28166;SDS011;15455;53.376;-6.262;2024-03-08T01:21:47;50.85;;;20.52;;
28166;SDS011;15455;53.376;-6.262;2024-03-08T01:24:32;42.67;;;18.42;;
28166;SDS011;15455;53.376;-6.262;2024-03-08T01:27:20;44.45;;;19.05;;
28166;SDS011;15455;53.376;-6.262;2024-03-08T01:30:05;46.10;;;18.38;;
28166;SDS011;15455;53.376;-6.262;2024-03-08T01:32:52;48.83;;;17.33;;
28166;SDS011;15455;53.376;-6.262;2024-03-08T01:35:37;38.38;;;18.10;;
28166;SDS011;15455;53.376;-6.262;2024-03-08T01:38:26;44.83;;;19.00;;
28166;SDS011;15455;53.376;-6.262;2024-03-08T01:41:12;48.92;;;19.02;;
28166;SDS011;15455;53.376;-6.262;2024-03-08T01:43:59;44.47;;;21.33;;
28166;SDS011;15455;53.376;-6.262;2024-03-08T01:46:44;44.42;;;19.52;;
28166;SDS011;15455;53.376;-6.262;2024-03-08T01:49:31;50.80;;;19.80;;
28166;SDS011;15455;53.376;-6.262;2024-03-08T01:52:17;41.50;;;19.05;;
28166;SDS011;15455;53.376;-6.262;2024-03-08T01:55:05;46.75;;;19.85;;
28166;SDS011;15455;53.376;-6.262;2024-03-08T01:57:54;50.97;;;20.77;;
28166;SDS011;15455;53.376;-6.262;2024-03-08T02:00:44;49.95;;;18.92;;
28166;SDS011;15455;53.376;-6.262;2024-03-08T02:03:30;49.22;;;20.20;;
28166;SDS011;15455;53.376;-6.262;2024-03-08T02:06:17;50.90;;;19.73;;
28166;SDS011;15455;53.376;-6.262;2024-03-08T02:09:03;42.45;;;19.00;;
28166;SDS011;15455;53.376;-6.262;2024-03-08T02:11:51;42.38;;;18.35;;
28166;SDS011;15455;53.376;-6.262;2024-03-08T02:14:37;48.38;;;19.08;;
28166;SDS011;15455;53.376;-6.262;2024-03-08T02:17:23;45.45;;;18.90;;
28166;SDS011;15455;53.376;-6.262;2024-03-08T02:20:08;53.03;;;19.88;;
28166;SDS011;15455;53.376;-6.262;2024-03-08T02:22:56;41.03;;;17.67;;
28166;SDS011;15455;53.376;-6.262;2024-03-08T02:25:42;44.47;;;17.52;;
28166;SDS011;15455;53.376;-6.262;2024-03-08T02:28:28;40.38;;;17.13;;
28166;SDS011;15455;53.376;-6.262;2024-03-08T02:31:14;39.97;;;18.40;;
28166;SDS011;15455;53.376;-6.262;2024-03-08T02:33:59;36.45;;;18.10;;
28166;SDS011;15455;53.376;-6.262;2024-03-08T02:36:45;43.53;;;18.17;;
28166;SDS011;15455;53.376;-6.262;2024-03-08T02:39:32;40.42;;;18.13;;
28166;SDS011;15455;53.376;-6.262;2024-03-08T02:42:17;36.05;;;16.35;;
28166;SDS011;15455;53.376;-6.262;2024-03-08T02:45:03;41.35;;;17.77;;
28166;SDS011;15455;53.376;-6.262;2024-03-08T02:47:51;37.90;;;16.10;;
28166;SDS011;15455;53.376;-6.262;2024-03-08T02:50:36;38.85;;;17.42;;
28166;SDS011;15455;53.376;-6.262;2024-03-08T02:53:22;42.75;;;18.10;;
28166;SDS011;15455;53.376;-6.262;2024-03-08T02:56:10;34.63;;;15.65;;
28166;SDS011;15455;53.376;-6.262;2024-03-08T02:58:58;37.97;;;17.05;;
28166;SDS011;15455;53.376;-6.262;2024-03-08T03:01:43;45.20;;;16.27;;
28166;SDS011;15455;53.376;-6.262;2024-03-08T03:04:29;38.00;;;16.42;;
28166;SDS011;15455;53.376;-6.262;2024-03-08T03:07:15;39.30;;;17.08;;
28166;SDS011;15455;53.376;-6.262;2024-03-08T03:10:00;37.72;;;16.15;;
28166;SDS011;15455;53.376;-6.262;2024-03-08T03:12:48;41.33;;;16.20;;
28166;SDS011;15455;53.376;-6.262;2024-03-08T03:15:34;45.50;;;17.15;;
28166;SDS011;15455;53.376;-6.262;2024-03-08T03:18:20;41.67;;;17.98;;
28166;SDS011;15455;53.376;-6.262;2024-03-08T03:21:09;45.78;;;16.42;;
28166;SDS011;15455;53.376;-6.262;2024-03-08T03:23:55;37.25;;;15.35;;
28166;SDS011;15455;53.376;-6.262;2024-03-08T03:26:41;34.95;;;14.65;;
28166;SDS011;15455;53.376;-6.262;2024-03-08T03:29:28;38.58;;;15.88;;
28166;SDS011;15455;53.376;-6.262;2024-03-08T03:32:15;45.88;;;14.60;;
28166;SDS011;15455;53.376;-6.262;2024-03-08T03:35:04;33.63;;;12.35;;
28166;SDS011;15455;53.376;-6.262;2024-03-08T03:37:50;35.72;;;14.85;;
28166;SDS011;15455;53.376;-6.262;2024-03-08T03:40:46;38.00;;;15.18;;
28166;SDS011;15455;53.376;-6.262;2024-03-08T03:43:34;36.42;;;14.90;;
28166;SDS011;15455;53.376;-6.262;2024-03-08T03:46:19;30.58;;;13.77;;
28166;SDS011;15455;53.376;-6.262;2024-03-08T03:49:05;30.05;;;14.25;;
28166;SDS011;15455;53.376;-6.262;2024-03-08T03:51:50;36.97;;;14.13;;
28166;SDS011;15455;53.376;-6.262;2024-03-08T03:54:36;28.17;;;12.18;;
28166;SDS011;15455;53.376;-6.262;2024-03-08T03:57:22;31.88;;;13.45;;
28166;SDS011;15455;53.376;-6.262;2024-03-08T04:00:08;31.65;;;14.90;;
28166;SDS011;15455;53.376;-6.262;2024-03-08T04:02:58;40.85;;;14.25;;
28166;SDS011;15455;53.376;-6.262;2024-03-08T04:05:46;28.50;;;13.85;;
28166;SDS011;15455;53.376;-6.262;2024-03-08T04:08:31;34.83;;;14.25;;
28166;SDS011;15455;53.376;-6.262;2024-03-08T04:11:19;36.72;;;14.05;;
28166;SDS011;15455;53.376;-6.262;2024-03-08T04:14:04;32.40;;;13.65;;
28166;SDS011;15455;53.376;-6.262;2024-03-08T04:16:50;31.45;;;13.38;;
28166;SDS011;15455;53.376;-6.262;2024-03-08T04:19:36;34.42;;;14.73;;
28166;SDS011;15455;53.376;-6.262;2024-03-08T04:22:21;34.45;;;14.73;;
28166;SDS011;15455;53.376;-6.262;2024-03-08T04:25:07;32.33;;;13.30;;
28166;SDS011;15455;53.376;-6.262;2024-03-08T04:27:54;34.78;;;13.75;;
28166;SDS011;15455;53.376;-6.262;2024-03-08T04:30:40;32.65;;;13.50;;
28166;SDS011;15455;53.376;-6.262;2024-03-08T04:33:26;34.65;;;13.90;;
28166;SDS011;15455;53.376;-6.262;2024-03-08T04:36:12;35.58;;;14.52;;
28166;SDS011;15455;53.376;-6.262;2024-03-08T04:38:59;29.17;;;12.63;;
28166;SDS011;15455;53.376;-6.262;2024-03-08T04:41:45;31.95;;;13.27;;
28166;SDS011;15455;53.376;-6.262;2024-03-08T04:44:30;31.80;;;13.23;;
28166;SDS011;15455;53.376;-6.262;2024-03-08T04:47:16;43.15;;;14.32;;
28166;SDS011;15455;53.376;-6.262;2024-03-08T04:50:03;30.25;;;13.18;;
28166;SDS011;15455;53.376;-6.262;2024-03-08T04:52:49;29.55;;;12.82;;
28166;SDS011;15455;53.376;-6.262;2024-03-08T04:55:34;23.88;;;12.13;;
28166;SDS011;15455;53.376;-6.262;2024-03-08T04:58:20;34.75;;;12.70;;
28166;SDS011;15455;53.376;-6.262;2024-03-08T05:01:07;34.17;;;13.15;;
28166;SDS011;15455;53.376;-6.262;2024-03-08T05:03:55;37.47;;;14.93;;
28166;SDS011;15455;53.376;-6.262;2024-03-08T05:06:47;31.40;;;12.55;;
28166;SDS011;15455;53.376;-6.262;2024-03-08T05:09:34;38.25;;;14.48;;
28166;SDS011;15455;53.376;-6.262;2024-03-08T05:12:21;33.03;;;15.02;;
28166;SDS011;15455;53.376;-6.262;2024-03-08T05:15:07;26.70;;;11.75;;
28166;SDS011;15455;53.376;-6.262;2024-03-08T05:17:54;35.88;;;13.45;;
28166;SDS011;15455;53.376;-6.262;2024-03-08T05:20:41;48.15;;;13.20;;
28166;SDS011;15455;53.376;-6.262;2024-03-08T05:23:27;36.30;;;13.80;;
28166;SDS011;15455;53.376;-6.262;2024-03-08T05:26:12;32.30;;;13.07;;
28166;SDS011;15455;53.376;-6.262;2024-03-08T05:28:59;31.48;;;14.75;;
28166;SDS011;15455;53.376;-6.262;2024-03-08T05:31:49;29.58;;;12.80;;
28166;SDS011;15455;53.376;-6.262;2024-03-08T05:34:35;40.10;;;13.75;;
28166;SDS011;15455;53.376;-6.262;2024-03-08T05:37:21;34.08;;;13.65;;
28166;SDS011;15455;53.376;-6.262;2024-03-08T05:40:07;41.55;;;13.60;;
28166;SDS011;15455;53.376;-6.262;2024-03-08T05:43:00;37.55;;;13.02;;
28166;SDS011;15455;53.376;-6.262;2024-03-08T05:45:46;33.58;;;14.50;;
28166;SDS011;15455;53.376;-6.262;2024-03-08T05:48:32;37.30;;;14.00;;
28166;SDS011;15455;53.376;-6.262;2024-03-08T05:51:18;34.70;;;12.70;;
28166;SDS011;15455;53.376;-6.262;2024-03-08T05:54:12;30.85;;;13.80;;
28166;SDS011;15455;53.376;-6.262;2024-03-08T05:57:02;32.13;;;13.13;;
28166;SDS011;15455;53.376;-6.262;2024-03-08T05:59:47;33.28;;;15.10;;
28166;SDS011;15455;53.376;-6.262;2024-03-08T06:02:33;43.55;;;15.30;;
28166;SDS011;15455;53.376;-6.262;2024-03-08T06:05:18;33.40;;;13.80;;
28166;SDS011;15455;53.376;-6.262;2024-03-08T06:08:04;36.03;;;14.80;;
28166;SDS011;15455;53.376;-6.262;2024-03-08T06:10:52;29.15;;;13.00;;
28166;SDS011;15455;53.376;-6.262;2024-03-08T06:13:38;32.75;;;13.82;;
28166;SDS011;15455;53.376;-6.262;2024-03-08T06:16:24;30.08;;;12.60;;
28166;SDS011;15455;53.376;-6.262;2024-03-08T06:19:10;35.53;;;14.60;;
28166;SDS011;15455;53.376;-6.262;2024-03-08T06:21:55;36.38;;;14.90;;
28166;SDS011;15455;53.376;-6.262;2024-03-08T06:24:41;35.28;;;14.45;;
28166;SDS011;15455;53.376;-6.262;2024-03-08T06:27:26;31.58;;;14.05;;
28166;SDS011;15455;53.376;-6.262;2024-03-08T06:30:12;44.90;;;15.65;;
28166;SDS011;15455;53.376;-6.262;2024-03-08T06:32:59;36.60;;;15.15;;
28166;SDS011;15455;53.376;-6.262;2024-03-08T06:35:44;40.35;;;16.35;;
28166;SDS011;15455;53.376;-6.262;2024-03-08T06:38:30;33.55;;;15.40;;
28166;SDS011;15455;53.376;-6.262;2024-03-08T06:41:16;33.13;;;16.10;;
28166;SDS011;15455;53.376;-6.262;2024-03-08T06:44:02;37.88;;;14.57;;
28166;SDS011;15455;53.376;-6.262;2024-03-08T06:46:48;33.70;;;14.52;;
28166;SDS011;15455;53.376;-6.262;2024-03-08T06:49:33;35.78;;;17.35;;
28166;SDS011;15455;53.376;-6.262;2024-03-08T06:52:19;41.10;;;16.35;;
28166;SDS011;15455;53.376;-6.262;2024-03-08T06:55:04;36.47;;;15.30;;
28166;SDS011;15455;53.376;-6.262;2024-03-08T06:57:50;34.72;;;15.38;;
28166;SDS011;15455;53.376;-6.262;2024-03-08T07:00:36;43.95;;;15.50;;
28166;SDS011;15455;53.376;-6.262;2024-03-08T07:03:22;43.40;;;15.80;;
28166;SDS011;15455;53.376;-6.262;2024-03-08T07:06:07;33.90;;;16.13;;
28166;SDS011;15455;53.376;-6.262;2024-03-08T07:08:53;45.20;;;16.17;;
28166;SDS011;15455;53.376;-6.262;2024-03-08T07:11:39;47.83;;;17.77;;
28166;SDS011;15455;53.376;-6.262;2024-03-08T07:14:29;46.67;;;16.98;;
28166;SDS011;15455;53.376;-6.262;2024-03-08T07:17:16;37.83;;;16.02;;
28166;SDS011;15455;53.376;-6.262;2024-03-08T07:20:02;41.90;;;17.67;;
28166;SDS011;15455;53.376;-6.262;2024-03-08T07:22:53;45.70;;;18.63;;
28166;SDS011;15455;53.376;-6.262;2024-03-08T07:25:38;37.33;;;17.20;;
28166;SDS011;15455;53.376;-6.262;2024-03-08T07:28:24;42.75;;;17.35;;
28166;SDS011;15455;53.376;-6.262;2024-03-08T07:31:11;43.83;;;17.40;;
28166;SDS011;15455;53.376;-6.262;2024-03-08T07:34:11;35.95;;;16.65;;
28166;SDS011;15455;53.376;-6.262;2024-03-08T07:36:58;39.90;;;15.98;;
28166;SDS011;15455;53.376;-6.262;2024-03-08T07:39:44;46.55;;;17.75;;
28166;SDS011;15455;53.376;-6.262;2024-03-08T07:42:30;46.15;;;17.63;;
28166;SDS011;15455;53.376;-6.262;2024-03-08T07:45:15;42.35;;;16.35;;
28166;SDS011;15455;53.376;-6.262;2024-03-08T07:48:01;51.58;;;16.73;;
28166;SDS011;15455;53.376;-6.262;2024-03-08T07:50:48;40.72;;;15.77;;
28166;SDS011;15455;53.376;-6.262;2024-03-08T07:53:35;49.47;;;17.42;;
28166;SDS011;15455;53.376;-6.262;2024-03-08T07:56:21;38.42;;;18.70;;
28166;SDS011;15455;53.376;-6.262;2024-03-08T07:59:07;44.92;;;16.55;;
28166;SDS011;15455;53.376;-6.262;2024-03-08T08:01:53;42.25;;;16.13;;
28166;SDS011;15455;53.376;-6.262;2024-03-08T08:04:38;35.05;;;16.52;;
28166;SDS011;15455;53.376;-6.262;2024-03-08T08:07:24;36.22;;;16.63;;
28166;SDS011;15455;53.376;-6.262;2024-03-08T08:10:10;38.03;;;15.52;;
28166;SDS011;15455;53.376;-6.262;2024-03-08T08:13:03;54.97;;;17.13;;
28166;SDS011;15455;53.376;-6.262;2024-03-08T08:15:52;40.80;;;16.88;;
28166;SDS011;15455;53.376;-6.262;2024-03-08T08:18:38;39.80;;;16.40;;
28166;SDS011;15455;53.376;-6.262;2024-03-08T08:21:24;42.28;;;17.67;;
28166;SDS011;15455;53.376;-6.262;2024-03-08T08:24:11;44.35;;;18.83;;
28166;SDS011;15455;53.376;-6.262;2024-03-08T08:26:57;36.25;;;17.52;;
28166;SDS011;15455;53.376;-6.262;2024-03-08T08:29:42;37.67;;;16.70;;
28166;SDS011;15455;53.376;-6.262;2024-03-08T08:32:28;38.50;;;17.95;;
28166;SDS011;15455;53.376;-6.262;2024-03-08T08:35:15;35.10;;;15.10;;
28166;SDS011;15455;53.376;-6.262;2024-03-08T08:38:01;40.75;;;15.98;;
28166;SDS011;15455;53.376;-6.262;2024-03-08T08:40:49;38.63;;;16.77;;
28166;SDS011;15455;53.376;-6.262;2024-03-08T08:43:35;35.20;;;15.70;;
28166;SDS011;15455;53.376;-6.262;2024-03-08T08:46:24;36.28;;;16.45;;
28166;SDS011;15455;53.376;-6.262;2024-03-08T08:49:11;41.28;;;16.92;;
28166;SDS011;15455;53.376;-6.262;2024-03-08T08:52:00;41.15;;;17.45;;
28166;SDS011;15455;53.376;-6.262;2024-03-08T08:54:56;40.53;;;17.73;;
28166;SDS011;15455;53.376;-6.262;2024-03-08T08:57:42;49.75;;;18.40;;
28166;SDS011;15455;53.376;-6.262;2024-03-08T09:00:28;40.95;;;17.50;;
28166;SDS011;15455;53.376;-6.262;2024-03-08T09:03:16;44.58;;;18.20;;
28166;SDS011;15455;53.376;-6.262;2024-03-08T09:06:06;35.83;;;15.27;;
28166;SDS011;15455;53.376;-6.262;2024-03-08T09:08:55;35.05;;;16.92;;
28166;SDS011;15455;53.376;-6.262;2024-03-08T09:11:40;51.60;;;18.80;;
28166;SDS011;15455;53.376;-6.262;2024-03-08T09:14:27;43.65;;;18.20;;
28166;SDS011;15455;53.376;-6.262;2024-03-08T09:17:13;43.22;;;18.63;;
28166;SDS011;15455;53.376;-6.262;2024-03-08T09:20:02;50.95;;;22.73;;
28166;SDS011;15455;53.376;-6.262;2024-03-08T09:22:49;41.00;;;18.90;;
28166;SDS011;15455;53.376;-6.262;2024-03-08T09:25:35;39.80;;;16.65;;
28166;SDS011;15455;53.376;-6.262;2024-03-08T09:28:21;42.92;;;20.08;;
28166;SDS011;15455;53.376;-6.262;2024-03-08T09:31:06;39.80;;;18.40;;
28166;SDS011;15455;53.376;-6.262;2024-03-08T09:33:53;45.28;;;20.95;;
28166;SDS011;15455;53.376;-6.262;2024-03-08T09:36:38;51.50;;;20.33;;
28166;SDS011;15455;53.376;-6.262;2024-03-08T09:39:23;47.95;;;20.85;;
28166;SDS011;15455;53.376;-6.262;2024-03-08T09:42:11;50.85;;;20.83;;
28166;SDS011;15455;53.376;-6.262;2024-03-08T09:45:00;46.25;;;20.67;;
28166;SDS011;15455;53.376;-6.262;2024-03-08T09:47:45;42.17;;;19.70;;
28166;SDS011;15455;53.376;-6.262;2024-03-08T09:50:32;37.40;;;19.65;;
28166;SDS011;15455;53.376;-6.262;2024-03-08T09:53:17;49.88;;;21.27;;
28166;SDS011;15455;53.376;-6.262;2024-03-08T09:56:04;43.70;;;21.00;;
28166;SDS011;15455;53.376;-6.262;2024-03-08T09:58:50;44.50;;;20.33;;
28166;SDS011;15455;53.376;-6.262;2024-03-08T10:01:54;44.15;;;20.08;;
28166;SDS011;15455;53.376;-6.262;2024-03-08T10:04:44;49.63;;;20.15;;
28166;SDS011;15455;53.376;-6.262;2024-03-08T10:07:32;44.70;;;20.45;;
28166;SDS011;15455;53.376;-6.262;2024-03-08T10:10:18;48.40;;;20.60;;
28166;SDS011;15455;53.376;-6.262;2024-03-08T10:13:08;51.22;;;19.48;;
28166;SDS011;15455;53.376;-6.262;2024-03-08T10:15:55;40.15;;;20.15;;
28166;SDS011;15455;53.376;-6.262;2024-03-08T10:18:40;45.58;;;21.50;;
28166;SDS011;15455;53.376;-6.262;2024-03-08T10:21:26;42.60;;;21.23;;
28166;SDS011;15455;53.376;-6.262;2024-03-08T10:24:12;49.05;;;21.10;;
28166;SDS011;15455;53.376;-6.262;2024-03-08T10:27:02;39.30;;;19.23;;
28166;SDS011;15455;53.376;-6.262;2024-03-08T10:29:50;54.95;;;22.17;;
28166;SDS011;15455;53.376;-6.262;2024-03-08T10:32:37;46.55;;;21.77;;
28166;SDS011;15455;53.376;-6.262;2024-03-08T10:35:23;43.35;;;18.58;;
28166;SDS011;15455;53.376;-6.262;2024-03-08T10:38:09;50.40;;;22.98;;
28166;SDS011;15455;53.376;-6.262;2024-03-08T10:41:02;47.42;;;22.42;;
28166;SDS011;15455;53.376;-6.262;2024-03-08T10:44:10;48.63;;;20.38;;
28166;SDS011;15455;53.376;-6.262;2024-03-08T10:47:21;49.22;;;20.35;;
28166;SDS011;15455;53.376;-6.262;2024-03-08T10:50:18;39.90;;;18.88;;
28166;SDS011;15455;53.376;-6.262;2024-03-08T10:53:09;41.50;;;19.75;;
28166;SDS011;15455;53.376;-6.262;2024-03-08T10:55:57;37.47;;;18.90;;
28166;SDS011;15455;53.376;-6.262;2024-03-08T10:58:43;45.25;;;20.60;;
28166;SDS011;15455;53.376;-6.262;2024-03-08T11:01:29;40.45;;;19.52;;
28166;SDS011;15455;53.376;-6.262;2024-03-08T11:04:16;42.80;;;19.92;;
28166;SDS011;15455;53.376;-6.262;2024-03-08T11:07:04;46.05;;;20.88;;
28166;SDS011;15455;53.376;-6.262;2024-03-08T11:09:53;45.05;;;21.63;;
28166;SDS011;15455;53.376;-6.262;2024-03-08T11:12:39;44.95;;;19.65;;
28166;SDS011;15455;53.376;-6.262;2024-03-08T11:15:25;44.10;;;19.92;;
28166;SDS011;15455;53.376;-6.262;2024-03-08T11:18:11;40.58;;;18.73;;
28166;SDS011;15455;53.376;-6.262;2024-03-08T11:20:58;40.63;;;20.17;;
28166;SDS011;15455;53.376;-6.262;2024-03-08T11:23:45;48.08;;;21.73;;
28166;SDS011;15455;53.376;-6.262;2024-03-08T11:26:52;42.35;;;18.75;;
28166;SDS011;15455;53.376;-6.262;2024-03-08T11:29:42;54.72;;;21.50;;
28166;SDS011;15455;53.376;-6.262;2024-03-08T11:32:28;43.45;;;19.55;;
28166;SDS011;15455;53.376;-6.262;2024-03-08T11:35:18;49.53;;;21.00;;
28166;SDS011;15455;53.376;-6.262;2024-03-08T11:38:07;50.83;;;21.77;;
28166;SDS011;15455;53.376;-6.262;2024-03-08T11:40:56;41.60;;;21.00;;
28166;SDS011;15455;53.376;-6.262;2024-03-08T11:43:42;47.53;;;21.00;;
28166;SDS011;15455;53.376;-6.262;2024-03-08T11:46:27;46.28;;;20.05;;
28166;SDS011;15455;53.376;-6.262;2024-03-08T11:49:13;45.22;;;21.67;;
28166;SDS011;15455;53.376;-6.262;2024-03-08T11:51:59;45.88;;;19.90;;
28166;SDS011;15455;53.376;-6.262;2024-03-08T11:54:52;66.13;;;21.98;;
28166;SDS011;15455;53.376;-6.262;2024-03-08T11:57:39;41.58;;;20.92;;
28166;SDS011;15455;53.376;-6.262;2024-03-08T12:00:27;43.40;;;19.85;;
28166;SDS011;15455;53.376;-6.262;2024-03-08T12:03:20;43.40;;;19.42;;
28166;SDS011;15455;53.376;-6.262;2024-03-08T12:06:05;41.92;;;19.27;;
28166;SDS011;15455;53.376;-6.262;2024-03-08T12:08:54;43.08;;;20.25;;
28166;SDS011;15455;53.376;-6.262;2024-03-08T12:11:39;44.47;;;20.38;;
28166;SDS011;15455;53.376;-6.262;2024-03-08T12:14:25;50.53;;;21.15;;
28166;SDS011;15455;53.376;-6.262;2024-03-08T12:17:11;41.28;;;20.98;;
28166;SDS011;15455;53.376;-6.262;2024-03-08T12:20:10;40.08;;;20.17;;
28166;SDS011;15455;53.376;-6.262;2024-03-08T12:22:57;42.10;;;19.63;;
28166;SDS011;15455;53.376;-6.262;2024-03-08T12:25:44;39.33;;;20.85;;
28166;SDS011;15455;53.376;-6.262;2024-03-08T12:28:29;49.53;;;22.13;;
28166;SDS011;15455;53.376;-6.262;2024-03-08T12:31:18;47.88;;;21.50;;
28166;SDS011;15455;53.376;-6.262;2024-03-08T12:34:07;43.65;;;20.08;;
28166;SDS011;15455;53.376;-6.262;2024-03-08T12:36:55;48.90;;;22.27;;
28166;SDS011;15455;53.376;-6.262;2024-03-08T12:39:41;45.30;;;19.40;;
28166;SDS011;15455;53.376;-6.262;2024-03-08T12:42:30;37.55;;;18.05;;
28166;SDS011;15455;53.376;-6.262;2024-03-08T12:45:16;37.47;;;18.70;;
28166;SDS011;15455;53.376;-6.262;2024-03-08T12:48:02;47.92;;;19.80;;
28166;SDS011;15455;53.376;-6.262;2024-03-08T12:50:48;47.67;;;20.85;;
28166;SDS011;15455;53.376;-6.262;2024-03-08T12:53:36;45.85;;;20.73;;
28166;SDS011;15455;53.376;-6.262;2024-03-08T12:56:31;40.53;;;19.50;;
28166;SDS011;15455;53.376;-6.262;2024-03-08T12:59:19;47.72;;;19.70;;
28166;SDS011;15455;53.376;-6.262;2024-03-08T13:02:04;45.83;;;19.80;;
28166;SDS011;15455;53.376;-6.262;2024-03-08T13:04:51;39.83;;;18.90;;
28166;SDS011;15455;53.376;-6.262;2024-03-08T13:07:42;44.17;;;20.17;;
28166;SDS011;15455;53.376;-6.262;2024-03-08T13:10:32;44.17;;;19.10;;
28166;SDS011;15455;53.376;-6.262;2024-03-08T13:13:17;39.95;;;19.00;;
28166;SDS011;15455;53.376;-6.262;2024-03-08T13:16:04;41.00;;;18.77;;
28166;SDS011;15455;53.376;-6.262;2024-03-08T13:18:54;41.63;;;19.10;;
28166;SDS011;15455;53.376;-6.262;2024-03-08T13:21:39;42.08;;;19.58;;
28166;SDS011;15455;53.376;-6.262;2024-03-08T13:24:25;38.08;;;18.83;;
28166;SDS011;15455;53.376;-6.262;2024-03-08T13:27:11;50.75;;;21.20;;
28166;SDS011;15455;53.376;-6.262;2024-03-08T13:30:04;45.33;;;20.20;;
28166;SDS011;15455;53.376;-6.262;2024-03-08T13:32:52;43.53;;;20.15;;
28166;SDS011;15455;53.376;-6.262;2024-03-08T13:35:39;43.65;;;20.23;;
28166;SDS011;15455;53.376;-6.262;2024-03-08T13:38:26;43.65;;;20.60;;
28166;SDS011;15455;53.376;-6.262;2024-03-08T13:41:11;42.70;;;18.17;;
28166;SDS011;15455;53.376;-6.262;2024-03-08T13:44:00;38.58;;;18.80;;
28166;SDS011;15455;53.376;-6.262;2024-03-08T13:46:46;45.33;;;19.95;;
28166;SDS011;15455;53.376;-6.262;2024-03-08T13:49:36;41.35;;;19.63;;
28166;SDS011;15455;53.376;-6.262;2024-03-08T13:52:22;43.10;;;19.27;;
28166;SDS011;15455;53.376;-6.262;2024-03-08T13:55:10;56.72;;;20.98;;
28166;SDS011;15455;53.376;-6.262;2024-03-08T13:57:58;51.75;;;20.40;;
28166;SDS011;15455;53.376;-6.262;2024-03-08T14:00:45;58.97;;;19.20;;
28166;SDS011;15455;53.376;-6.262;2024-03-08T14:03:32;40.25;;;18.30;;
28166;SDS011;15455;53.376;-6.262;2024-03-08T14:06:18;44.35;;;19.27;;
28166;SDS011;15455;53.376;-6.262;2024-03-08T14:09:07;42.63;;;19.60;;
28166;SDS011;15455;53.376;-6.262;2024-03-08T14:11:53;41.60;;;18.10;;
28166;SDS011;15455;53.376;-6.262;2024-03-08T14:14:40;44.83;;;19.20;;
28166;SDS011;15455;53.376;-6.262;2024-03-08T14:17:27;43.85;;;19.45;;
28166;SDS011;15455;53.376;-6.262;2024-03-08T14:20:16;47.30;;;19.40;;
28166;SDS011;15455;53.376;-6.262;2024-03-08T14:23:03;40.03;;;18.50;;
28166;SDS011;15455;53.376;-6.262;2024-03-08T14:25:52;36.28;;;18.48;;
28166;SDS011;15455;53.376;-6.262;2024-03-08T14:28:37;43.97;;;19.08;;
28166;SDS011;15455;53.376;-6.262;2024-03-08T14:31:24;39.40;;;19.95;;
28166;SDS011;15455;53.376;-6.262;2024-03-08T14:34:11;45.00;;;19.42;;
28166;SDS011;15455;53.376;-6.262;2024-03-08T14:36:59;42.08;;;19.63;;
28166;SDS011;15455;53.376;-6.262;2024-03-08T14:39:49;47.65;;;20.40;;
28166;SDS011;15455;53.376;-6.262;2024-03-08T14:42:37;49.60;;;20.42;;
28166;SDS011;15455;53.376;-6.262;2024-03-08T14:45:27;38.60;;;16.88;;
28166;SDS011;15455;53.376;-6.262;2024-03-08T14:48:13;41.20;;;18.95;;
28166;SDS011;15455;53.376;-6.262;2024-03-08T14:50:59;44.42;;;18.98;;
28166;SDS011;15455;53.376;-6.262;2024-03-08T14:53:44;44.83;;;20.08;;
28166;SDS011;15455;53.376;-6.262;2024-03-08T14:56:30;49.47;;;19.88;;
28166;SDS011;15455;53.376;-6.262;2024-03-08T14:59:16;42.80;;;19.95;;
28166;SDS011;15455;53.376;-6.262;2024-03-08T15:02:04;44.97;;;21.17;;
28166;SDS011;15455;53.376;-6.262;2024-03-08T15:04:52;55.42;;;21.05;;
28166;SDS011;15455;53.376;-6.262;2024-03-08T15:07:45;41.88;;;18.83;;
28166;SDS011;15455;53.376;-6.262;2024-03-08T15:10:31;49.80;;;20.35;;
28166;SDS011;15455;53.376;-6.262;2024-03-08T15:13:22;39.13;;;17.55;;
28166;SDS011;15455;53.376;-6.262;2024-03-08T15:16:13;50.50;;;22.02;;
28166;SDS011;15455;53.376;-6.262;2024-03-08T15:19:03;43.50;;;20.65;;
28166;SDS011;15455;53.376;-6.262;2024-03-08T15:21:50;47.50;;;20.13;;
28166;SDS011;15455;53.376;-6.262;2024-03-08T15:24:40;46.03;;;19.48;;
28166;SDS011;15455;53.376;-6.262;2024-03-08T15:27:28;48.00;;;19.58;;
28166;SDS011;15455;53.376;-6.262;2024-03-08T15:30:14;44.95;;;19.05;;
28166;SDS011;15455;53.376;-6.262;2024-03-08T15:33:01;42.40;;;20.58;;
28166;SDS011;15455;53.376;-6.262;2024-03-08T15:35:48;41.70;;;19.02;;
28166;SDS011;15455;53.376;-6.262;2024-03-08T15:38:35;42.30;;;19.58;;
28166;SDS011;15455;53.376;-6.262;2024-03-08T15:41:22;53.92;;;21.00;;
28166;SDS011;15455;53.376;-6.262;2024-03-08T15:44:07;59.15;;;20.85;;
28166;SDS011;15455;53.376;-6.262;2024-03-08T15:46:57;42.05;;;18.60;;
28166;SDS011;15455;53.376;-6.262;2024-03-08T15:49:43;49.80;;;19.75;;
28166;SDS011;15455;53.376;-6.262;2024-03-08T15:52:30;54.65;;;20.83;;
28166;SDS011;15455;53.376;-6.262;2024-03-08T15:55:16;49.97;;;19.45;;
28166;SDS011;15455;53.376;-6.262;2024-03-08T15:58:05;48.33;;;19.40;;
28166;SDS011;15455;53.376;-6.262;2024-03-08T16:00:52;48.20;;;20.55;;
28166;SDS011;15455;53.376;-6.262;2024-03-08T16:03:38;48.15;;;18.58;;